sensor_id;sensor_type;location;lat;lon;timestamp;P1;durP1;ratioP1;P2;durP2;ratioP2
43891;SDS011;29555;45.350;5.578;2022-10-31T00:00:16;8.93;;;4.70;;
43891;SDS011;29555;45.350;5.578;2022-10-31T00:02:42;14.00;;;6.03;;
43891;SDS011;29555;45.350;5.578;2022-10-31T00:05:07;9.15;;;4.82;;
43891;SDS011;29555;45.350;5.578;2022-10-31T00:07:33;10.27;;;6.32;;
43891;SDS011;29555;45.350;5.578;2022-10-31T00:09:58;6.78;;;4.10;;
43891;SDS011;29555;45.350;5.578;2022-10-31T00:12:23;8.40;;;5.93;;
43891;SDS011;29555;45.350;5.578;2022-10-31T00:14:49;9.27;;;5.55;;
43891;SDS011;29555;45.350;5.578;2022-10-31T00:17:14;10.73;;;5.45;;
43891;SDS011;29555;45.350;5.578;2022-10-31T00:19:39;12.50;;;5.25;;
43891;SDS011;29555;45.350;5.578;2022-10-31T00:22:05;9.13;;;4.68;;
43891;SDS011;29555;45.350;5.578;2022-10-31T00:24:30;10.90;;;5.38;;
43891;SDS011;29555;45.350;5.578;2022-10-31T00:26:55;10.95;;;5.50;;
43891;SDS011;29555;45.350;5.578;2022-10-31T00:29:21;9.63;;;5.10;;
43891;SDS011;29555;45.350;5.578;2022-10-31T00:31:46;8.80;;;5.93;;
43891;SDS011;29555;45.350;5.578;2022-10-31T00:34:11;7.30;;;5.07;;
43891;SDS011;29555;45.350;5.578;2022-10-31T00:36:37;14.00;;;5.00;;
43891;SDS011;29555;45.350;5.578;2022-10-31T00:39:02;11.20;;;6.00;;
43891;SDS011;29555;45.350;5.578;2022-10-31T00:41:28;8.40;;;4.97;;
43891;SDS011;29555;45.350;5.578;2022-10-31T00:43:54;11.05;;;6.03;;
43891;SDS011;29555;45.350;5.578;2022-10-31T00:46:20;8.90;;;5.80;;
43891;SDS011;29555;45.350;5.578;2022-10-31T00:48:45;6.25;;;3.95;;
43891;SDS011;29555;45.350;5.578;2022-10-31T00:51:10;11.48;;;5.88;;
43891;SDS011;29555;45.350;5.578;2022-10-31T00:53:36;7.65;;;4.10;;
43891;SDS011;29555;45.350;5.578;2022-10-31T00:56:01;11.75;;;6.65;;
43891;SDS011;29555;45.350;5.578;2022-10-31T00:58:27;9.13;;;4.20;;
43891;SDS011;29555;45.350;5.578;2022-10-31T01:00:53;5.95;;;5.10;;
43891;SDS011;29555;45.350;5.578;2022-10-31T01:03:25;14.25;;;5.30;;
43891;SDS011;29555;45.350;5.578;2022-10-31T01:05:55;8.35;;;4.93;;
43891;SDS011;29555;45.350;5.578;2022-10-31T01:08:23;10.65;;;5.15;;
43891;SDS011;29555;45.350;5.578;2022-10-31T01:11:02;5.60;;;4.65;;
43891;SDS011;29555;45.350;5.578;2022-10-31T01:13:28;15.45;;;4.85;;
43891;SDS011;29555;45.350;5.578;2022-10-31T01:15:57;5.25;;;4.32;;
43891;SDS011;29555;45.350;5.578;2022-10-31T01:18:23;12.32;;;5.05;;
43891;SDS011;29555;45.350;5.578;2022-10-31T01:21:02;12.43;;;5.95;;
43891;SDS011;29555;45.350;5.578;2022-10-31T01:23:32;16.50;;;5.85;;
43891;SDS011;29555;45.350;5.578;2022-10-31T01:26:20;12.73;;;6.38;;
43891;SDS011;29555;45.350;5.578;2022-10-31T01:28:53;6.05;;;4.32;;
43891;SDS011;29555;45.350;5.578;2022-10-31T01:31:22;11.80;;;5.07;;
43891;SDS011;29555;45.350;5.578;2022-10-31T01:33:49;5.15;;;4.30;;
43891;SDS011;29555;45.350;5.578;2022-10-31T01:36:25;5.25;;;4.25;;
43891;SDS011;29555;45.350;5.578;2022-10-31T01:38:55;9.93;;;4.70;;
43891;SDS011;29555;45.350;5.578;2022-10-31T01:41:24;6.72;;;4.78;;
43891;SDS011;29555;45.350;5.578;2022-10-31T01:43:53;7.10;;;4.10;;
43891;SDS011;29555;45.350;5.578;2022-10-31T01:46:22;7.10;;;5.18;;
43891;SDS011;29555;45.350;5.578;2022-10-31T01:49:29;10.23;;;5.28;;
43891;SDS011;29555;45.350;5.578;2022-10-31T01:51:57;13.15;;;5.40;;
43891;SDS011;29555;45.350;5.578;2022-10-31T01:54:28;7.78;;;4.90;;
43891;SDS011;29555;45.350;5.578;2022-10-31T01:56:59;9.25;;;5.32;;
43891;SDS011;29555;45.350;5.578;2022-10-31T01:59:27;10.80;;;5.63;;
43891;SDS011;29555;45.350;5.578;2022-10-31T02:01:55;14.15;;;6.43;;
43891;SDS011;29555;45.350;5.578;2022-10-31T02:04:20;6.18;;;4.50;;
43891;SDS011;29555;45.350;5.578;2022-10-31T02:06:58;9.48;;;6.25;;
43891;SDS011;29555;45.350;5.578;2022-10-31T02:09:29;4.57;;;4.15;;
43891;SDS011;29555;45.350;5.578;2022-10-31T02:11:56;9.73;;;4.70;;
43891;SDS011;29555;45.350;5.578;2022-10-31T02:14:23;7.97;;;4.95;;
43891;SDS011;29555;45.350;5.578;2022-10-31T02:16:50;10.10;;;4.43;;
43891;SDS011;29555;45.350;5.578;2022-10-31T02:19:18;6.60;;;4.63;;
43891;SDS011;29555;45.350;5.578;2022-10-31T02:21:53;11.30;;;5.85;;
43891;SDS011;29555;45.350;5.578;2022-10-31T02:24:37;4.45;;;4.05;;
43891;SDS011;29555;45.350;5.578;2022-10-31T02:27:11;11.20;;;4.18;;
43891;SDS011;29555;45.350;5.578;2022-10-31T02:29:55;5.68;;;4.45;;
43891;SDS011;29555;45.350;5.578;2022-10-31T02:32:27;9.63;;;4.50;;
43891;SDS011;29555;45.350;5.578;2022-10-31T02:35:16;9.25;;;4.70;;
43891;SDS011;29555;45.350;5.578;2022-10-31T02:38:02;6.82;;;4.97;;
43891;SDS011;29555;45.350;5.578;2022-10-31T02:48:40;14.07;;;4.38;;
43891;SDS011;29555;45.350;5.578;2022-10-31T02:51:07;6.20;;;4.38;;
43891;SDS011;29555;45.350;5.578;2022-10-31T02:53:34;6.63;;;5.13;;
43891;SDS011;29555;45.350;5.578;2022-10-31T02:56:34;13.18;;;6.15;;
43891;SDS011;29555;45.350;5.578;2022-10-31T02:58:56;12.55;;;4.97;;
43891;SDS011;29555;45.350;5.578;2022-10-31T03:03:57;11.80;;;5.80;;
43891;SDS011;29555;45.350;5.578;2022-10-31T03:09:25;9.73;;;4.78;;
43891;SDS011;29555;45.350;5.578;2022-10-31T03:12:06;15.82;;;7.07;;
43891;SDS011;29555;45.350;5.578;2022-10-31T03:17:04;7.30;;;4.63;;
43891;SDS011;29555;45.350;5.578;2022-10-31T03:19:42;13.85;;;5.85;;
43891;SDS011;29555;45.350;5.578;2022-10-31T03:22:22;7.28;;;4.65;;
43891;SDS011;29555;45.350;5.578;2022-10-31T03:24:48;11.38;;;7.05;;
43891;SDS011;29555;45.350;5.578;2022-10-31T03:27:16;12.90;;;4.75;;
43891;SDS011;29555;45.350;5.578;2022-10-31T03:29:48;11.13;;;4.57;;
43891;SDS011;29555;45.350;5.578;2022-10-31T03:32:17;10.55;;;4.85;;
43891;SDS011;29555;45.350;5.578;2022-10-31T03:34:46;9.95;;;4.32;;
43891;SDS011;29555;45.350;5.578;2022-10-31T03:37:14;5.55;;;4.50;;
43891;SDS011;29555;45.350;5.578;2022-10-31T03:39:43;9.07;;;4.15;;
43891;SDS011;29555;45.350;5.578;2022-10-31T03:42:11;8.57;;;5.45;;
43891;SDS011;29555;45.350;5.578;2022-10-31T03:44:41;12.48;;;4.55;;
43891;SDS011;29555;45.350;5.578;2022-10-31T03:47:10;15.15;;;4.20;;
43891;SDS011;29555;45.350;5.578;2022-10-31T03:49:36;8.65;;;4.95;;
43891;SDS011;29555;45.350;5.578;2022-10-31T03:52:04;5.40;;;3.55;;
43891;SDS011;29555;45.350;5.578;2022-10-31T03:54:51;8.00;;;4.80;;
43891;SDS011;29555;45.350;5.578;2022-10-31T03:57:23;10.93;;;4.72;;
43891;SDS011;29555;45.350;5.578;2022-10-31T04:02:28;6.45;;;4.40;;
43891;SDS011;29555;45.350;5.578;2022-10-31T04:04:56;9.27;;;4.15;;
43891;SDS011;29555;45.350;5.578;2022-10-31T04:07:22;16.77;;;4.95;;
43891;SDS011;29555;45.350;5.578;2022-10-31T04:09:52;8.55;;;4.15;;
43891;SDS011;29555;45.350;5.578;2022-10-31T04:12:18;12.48;;;5.28;;
43891;SDS011;29555;45.350;5.578;2022-10-31T04:14:45;9.13;;;4.18;;
43891;SDS011;29555;45.350;5.578;2022-10-31T04:17:14;9.25;;;4.68;;
43891;SDS011;29555;45.350;5.578;2022-10-31T04:19:43;7.05;;;4.75;;
43891;SDS011;29555;45.350;5.578;2022-10-31T04:22:08;10.65;;;3.95;;
43891;SDS011;29555;45.350;5.578;2022-10-31T04:24:34;8.90;;;4.75;;
43891;SDS011;29555;45.350;5.578;2022-10-31T04:27:02;9.77;;;5.90;;
43891;SDS011;29555;45.350;5.578;2022-10-31T04:29:27;22.15;;;5.13;;
43891;SDS011;29555;45.350;5.578;2022-10-31T04:31:52;10.32;;;6.22;;
43891;SDS011;29555;45.350;5.578;2022-10-31T04:34:18;14.43;;;6.45;;
43891;SDS011;29555;45.350;5.578;2022-10-31T04:36:43;10.05;;;4.68;;
43891;SDS011;29555;45.350;5.578;2022-10-31T04:39:08;8.18;;;5.50;;
43891;SDS011;29555;45.350;5.578;2022-10-31T04:41:34;7.57;;;4.32;;
43891;SDS011;29555;45.350;5.578;2022-10-31T04:43:59;10.00;;;5.68;;
43891;SDS011;29555;45.350;5.578;2022-10-31T04:46:24;7.20;;;5.55;;
43891;SDS011;29555;45.350;5.578;2022-10-31T04:48:50;8.80;;;5.20;;
43891;SDS011;29555;45.350;5.578;2022-10-31T04:51:15;14.23;;;6.10;;
43891;SDS011;29555;45.350;5.578;2022-10-31T04:53:40;8.15;;;5.43;;
43891;SDS011;29555;45.350;5.578;2022-10-31T04:56:06;8.35;;;4.78;;
43891;SDS011;29555;45.350;5.578;2022-10-31T04:58:31;10.20;;;5.75;;
43891;SDS011;29555;45.350;5.578;2022-10-31T05:00:57;13.98;;;5.65;;
43891;SDS011;29555;45.350;5.578;2022-10-31T05:03:22;22.13;;;5.75;;
43891;SDS011;29555;45.350;5.578;2022-10-31T05:05:48;14.38;;;5.22;;
43891;SDS011;29555;45.350;5.578;2022-10-31T05:08:13;6.85;;;4.75;;
43891;SDS011;29555;45.350;5.578;2022-10-31T05:10:39;12.35;;;5.60;;
43891;SDS011;29555;45.350;5.578;2022-10-31T05:13:04;16.33;;;5.75;;
43891;SDS011;29555;45.350;5.578;2022-10-31T05:15:30;11.40;;;6.03;;
43891;SDS011;29555;45.350;5.578;2022-10-31T05:17:56;10.93;;;5.53;;
43891;SDS011;29555;45.350;5.578;2022-10-31T05:20:22;11.65;;;4.85;;
43891;SDS011;29555;45.350;5.578;2022-10-31T05:22:50;10.10;;;6.00;;
43891;SDS011;29555;45.350;5.578;2022-10-31T05:25:19;10.07;;;5.35;;
43891;SDS011;29555;45.350;5.578;2022-10-31T05:27:46;7.30;;;5.07;;
43891;SDS011;29555;45.350;5.578;2022-10-31T05:30:14;11.57;;;5.80;;
43891;SDS011;29555;45.350;5.578;2022-10-31T05:32:42;20.70;;;6.13;;
43891;SDS011;29555;45.350;5.578;2022-10-31T05:35:10;12.52;;;6.07;;
43891;SDS011;29555;45.350;5.578;2022-10-31T05:38:02;14.35;;;6.60;;
43891;SDS011;29555;45.350;5.578;2022-10-31T05:40:27;5.03;;;4.13;;
43891;SDS011;29555;45.350;5.578;2022-10-31T05:42:54;7.35;;;5.22;;
43891;SDS011;29555;45.350;5.578;2022-10-31T05:45:20;9.02;;;4.45;;
43891;SDS011;29555;45.350;5.578;2022-10-31T05:47:56;8.30;;;4.72;;
43891;SDS011;29555;45.350;5.578;2022-10-31T05:50:23;10.75;;;6.30;;
43891;SDS011;29555;45.350;5.578;2022-10-31T05:52:54;11.70;;;6.13;;
43891;SDS011;29555;45.350;5.578;2022-10-31T05:55:21;7.93;;;5.07;;
43891;SDS011;29555;45.350;5.578;2022-10-31T05:57:46;11.20;;;6.30;;
43891;SDS011;29555;45.350;5.578;2022-10-31T06:00:11;8.77;;;5.13;;
43891;SDS011;29555;45.350;5.578;2022-10-31T06:02:37;16.38;;;6.13;;
43891;SDS011;29555;45.350;5.578;2022-10-31T06:05:02;6.40;;;4.65;;
43891;SDS011;29555;45.350;5.578;2022-10-31T06:07:31;10.13;;;5.93;;
43891;SDS011;29555;45.350;5.578;2022-10-31T06:09:59;5.95;;;5.22;;
43891;SDS011;29555;45.350;5.578;2022-10-31T06:12:24;14.13;;;4.95;;
43891;SDS011;29555;45.350;5.578;2022-10-31T06:14:50;10.07;;;4.40;;
43891;SDS011;29555;45.350;5.578;2022-10-31T06:17:15;19.13;;;7.15;;
43891;SDS011;29555;45.350;5.578;2022-10-31T06:19:40;12.60;;;6.05;;
43891;SDS011;29555;45.350;5.578;2022-10-31T06:22:06;10.63;;;5.13;;
43891;SDS011;29555;45.350;5.578;2022-10-31T06:24:31;22.60;;;7.18;;
43891;SDS011;29555;45.350;5.578;2022-10-31T06:26:56;9.35;;;5.65;;
43891;SDS011;29555;45.350;5.578;2022-10-31T06:29:22;6.72;;;5.68;;
43891;SDS011;29555;45.350;5.578;2022-10-31T06:31:47;12.73;;;5.30;;
43891;SDS011;29555;45.350;5.578;2022-10-31T06:34:16;9.35;;;5.78;;
43891;SDS011;29555;45.350;5.578;2022-10-31T06:36:41;12.27;;;6.07;;
43891;SDS011;29555;45.350;5.578;2022-10-31T06:39:07;14.85;;;6.20;;
43891;SDS011;29555;45.350;5.578;2022-10-31T06:41:32;12.70;;;6.13;;
43891;SDS011;29555;45.350;5.578;2022-10-31T06:43:57;11.07;;;5.65;;
43891;SDS011;29555;45.350;5.578;2022-10-31T06:46:23;9.20;;;5.88;;
43891;SDS011;29555;45.350;5.578;2022-10-31T06:48:48;11.10;;;5.78;;
43891;SDS011;29555;45.350;5.578;2022-10-31T06:51:13;18.27;;;7.40;;
43891;SDS011;29555;45.350;5.578;2022-10-31T06:53:39;21.35;;;7.57;;
43891;SDS011;29555;45.350;5.578;2022-10-31T06:56:04;20.83;;;6.60;;
43891;SDS011;29555;45.350;5.578;2022-10-31T06:58:30;12.70;;;6.93;;
43891;SDS011;29555;45.350;5.578;2022-10-31T07:00:58;11.63;;;5.10;;
43891;SDS011;29555;45.350;5.578;2022-10-31T07:03:24;14.68;;;5.85;;
43891;SDS011;29555;45.350;5.578;2022-10-31T07:05:49;7.38;;;5.03;;
43891;SDS011;29555;45.350;5.578;2022-10-31T07:08:15;8.23;;;5.25;;
43891;SDS011;29555;45.350;5.578;2022-10-31T07:10:41;23.17;;;6.65;;
43891;SDS011;29555;45.350;5.578;2022-10-31T07:13:11;7.57;;;4.97;;
43891;SDS011;29555;45.350;5.578;2022-10-31T07:15:38;23.05;;;6.10;;
43891;SDS011;29555;45.350;5.578;2022-10-31T07:18:06;15.68;;;6.35;;
43891;SDS011;29555;45.350;5.578;2022-10-31T07:20:33;11.27;;;6.55;;
43891;SDS011;29555;45.350;5.578;2022-10-31T07:22:59;10.48;;;5.90;;
43891;SDS011;29555;45.350;5.578;2022-10-31T07:25:25;7.65;;;4.80;;
43891;SDS011;29555;45.350;5.578;2022-10-31T07:27:51;16.13;;;5.65;;
43891;SDS011;29555;45.350;5.578;2022-10-31T07:30:17;9.13;;;5.63;;
43891;SDS011;29555;45.350;5.578;2022-10-31T07:35:16;13.95;;;6.38;;
43891;SDS011;29555;45.350;5.578;2022-10-31T07:37:43;14.93;;;5.85;;
43891;SDS011;29555;45.350;5.578;2022-10-31T07:40:09;18.20;;;4.80;;
43891;SDS011;29555;45.350;5.578;2022-10-31T07:42:38;14.00;;;6.35;;
43891;SDS011;29555;45.350;5.578;2022-10-31T07:45:06;9.15;;;5.60;;
43891;SDS011;29555;45.350;5.578;2022-10-31T07:47:39;10.75;;;5.80;;
43891;SDS011;29555;45.350;5.578;2022-10-31T07:50:08;11.52;;;6.13;;
43891;SDS011;29555;45.350;5.578;2022-10-31T07:52:35;6.60;;;6.00;;
43891;SDS011;29555;45.350;5.578;2022-10-31T07:55:01;11.55;;;6.35;;
43891;SDS011;29555;45.350;5.578;2022-10-31T07:57:26;7.75;;;4.65;;
43891;SDS011;29555;45.350;5.578;2022-10-31T07:59:52;11.15;;;6.13;;
43891;SDS011;29555;45.350;5.578;2022-10-31T08:02:17;6.72;;;5.65;;
43891;SDS011;29555;45.350;5.578;2022-10-31T08:04:42;11.13;;;6.53;;
43891;SDS011;29555;45.350;5.578;2022-10-31T08:07:08;18.95;;;6.35;;
43891;SDS011;29555;45.350;5.578;2022-10-31T08:09:33;7.63;;;5.95;;
43891;SDS011;29555;45.350;5.578;2022-10-31T08:11:58;11.32;;;6.47;;
43891;SDS011;29555;45.350;5.578;2022-10-31T08:14:24;12.07;;;6.63;;
43891;SDS011;29555;45.350;5.578;2022-10-31T08:16:49;18.05;;;8.50;;
43891;SDS011;29555;45.350;5.578;2022-10-31T08:19:15;11.02;;;5.65;;
43891;SDS011;29555;45.350;5.578;2022-10-31T08:21:40;13.82;;;7.63;;
43891;SDS011;29555;45.350;5.578;2022-10-31T08:24:05;14.85;;;6.80;;
43891;SDS011;29555;45.350;5.578;2022-10-31T08:26:31;10.57;;;6.88;;
43891;SDS011;29555;45.350;5.578;2022-10-31T08:28:56;12.02;;;8.48;;
43891;SDS011;29555;45.350;5.578;2022-10-31T08:31:22;9.85;;;6.03;;
43891;SDS011;29555;45.350;5.578;2022-10-31T08:33:47;11.13;;;6.97;;
43891;SDS011;29555;45.350;5.578;2022-10-31T08:36:13;11.07;;;7.00;;
43891;SDS011;29555;45.350;5.578;2022-10-31T08:38:39;7.30;;;5.10;;
43891;SDS011;29555;45.350;5.578;2022-10-31T08:41:04;7.13;;;5.60;;
43891;SDS011;29555;45.350;5.578;2022-10-31T08:43:29;18.65;;;6.78;;
43891;SDS011;29555;45.350;5.578;2022-10-31T08:45:55;11.25;;;7.13;;
43891;SDS011;29555;45.350;5.578;2022-10-31T08:48:20;19.17;;;6.45;;
43891;SDS011;29555;45.350;5.578;2022-10-31T08:50:46;13.90;;;6.50;;
43891;SDS011;29555;45.350;5.578;2022-10-31T08:53:12;14.73;;;5.80;;
43891;SDS011;29555;45.350;5.578;2022-10-31T08:55:39;12.63;;;5.85;;
43891;SDS011;29555;45.350;5.578;2022-10-31T08:58:06;12.52;;;6.25;;
43891;SDS011;29555;45.350;5.578;2022-10-31T09:00:33;9.82;;;6.32;;
43891;SDS011;29555;45.350;5.578;2022-10-31T09:03:10;30.00;;;9.30;;
43891;SDS011;29555;45.350;5.578;2022-10-31T09:05:37;15.73;;;7.75;;
43891;SDS011;29555;45.350;5.578;2022-10-31T09:08:03;47.58;;;10.65;;
43891;SDS011;29555;45.350;5.578;2022-10-31T09:10:30;32.33;;;12.02;;
43891;SDS011;29555;45.350;5.578;2022-10-31T09:15:23;41.45;;;10.60;;
43891;SDS011;29555;45.350;5.578;2022-10-31T09:17:49;33.55;;;10.13;;
43891;SDS011;29555;45.350;5.578;2022-10-31T09:20:14;28.55;;;10.27;;
43891;SDS011;29555;45.350;5.578;2022-10-31T09:22:40;46.15;;;12.52;;
43891;SDS011;29555;45.350;5.578;2022-10-31T09:25:05;60.35;;;15.38;;
43891;SDS011;29555;45.350;5.578;2022-10-31T09:27:31;78.40;;;24.05;;
43891;SDS011;29555;45.350;5.578;2022-10-31T09:29:56;38.72;;;13.43;;
43891;SDS011;29555;45.350;5.578;2022-10-31T09:32:22;20.92;;;7.65;;
43891;SDS011;29555;45.350;5.578;2022-10-31T09:34:47;30.65;;;8.65;;
43891;SDS011;29555;45.350;5.578;2022-10-31T09:37:12;17.20;;;7.57;;
43891;SDS011;29555;45.350;5.578;2022-10-31T09:39:38;25.35;;;9.65;;
43891;SDS011;29555;45.350;5.578;2022-10-31T09:50:22;11.00;;;6.38;;
43891;SDS011;29555;45.350;5.578;2022-10-31T09:52:54;12.70;;;5.30;;
43891;SDS011;29555;45.350;5.578;2022-10-31T09:55:30;8.77;;;5.95;;
43891;SDS011;29555;45.350;5.578;2022-10-31T09:58:01;21.83;;;7.30;;
43891;SDS011;29555;45.350;5.578;2022-10-31T10:00:27;9.65;;;5.00;;
43891;SDS011;29555;45.350;5.578;2022-10-31T10:03:06;18.88;;;7.25;;
43891;SDS011;29555;45.350;5.578;2022-10-31T10:08:19;9.43;;;6.05;;
43891;SDS011;29555;45.350;5.578;2022-10-31T10:10:50;15.93;;;6.22;;
43891;SDS011;29555;45.350;5.578;2022-10-31T10:16:31;16.60;;;6.10;;
43891;SDS011;29555;45.350;5.578;2022-10-31T10:19:11;11.90;;;6.05;;
43891;SDS011;29555;45.350;5.578;2022-10-31T10:24:23;15.85;;;4.65;;
43891;SDS011;29555;45.350;5.578;2022-10-31T10:27:20;13.27;;;6.07;;
43891;SDS011;29555;45.350;5.578;2022-10-31T10:29:49;11.23;;;5.72;;
43891;SDS011;29555;45.350;5.578;2022-10-31T10:32:19;13.25;;;5.03;;
43891;SDS011;29555;45.350;5.578;2022-10-31T10:34:49;8.90;;;5.28;;
43891;SDS011;29555;45.350;5.578;2022-10-31T10:40:17;20.00;;;5.18;;
43891;SDS011;29555;45.350;5.578;2022-10-31T10:45:49;11.82;;;4.43;;
43891;SDS011;29555;45.350;5.578;2022-10-31T11:02:59;12.40;;;5.95;;
43891;SDS011;29555;45.350;5.578;2022-10-31T11:05:26;9.75;;;4.65;;
43891;SDS011;29555;45.350;5.578;2022-10-31T11:08:09;17.02;;;4.95;;
43891;SDS011;29555;45.350;5.578;2022-10-31T11:10:35;20.88;;;5.78;;
43891;SDS011;29555;45.350;5.578;2022-10-31T11:13:04;14.68;;;4.93;;
43891;SDS011;29555;45.350;5.578;2022-10-31T11:18:41;13.85;;;4.47;;
43891;SDS011;29555;45.350;5.578;2022-10-31T11:21:29;12.40;;;4.90;;
43891;SDS011;29555;45.350;5.578;2022-10-31T11:24:03;11.30;;;4.80;;
43891;SDS011;29555;45.350;5.578;2022-10-31T11:27:02;20.33;;;5.50;;
43891;SDS011;29555;45.350;5.578;2022-10-31T11:29:40;7.18;;;4.32;;
43891;SDS011;29555;45.350;5.578;2022-10-31T11:32:08;8.18;;;4.38;;
43891;SDS011;29555;45.350;5.578;2022-10-31T11:34:43;14.45;;;4.25;;
43891;SDS011;29555;45.350;5.578;2022-10-31T11:39:42;11.13;;;5.55;;
43891;SDS011;29555;45.350;5.578;2022-10-31T11:42:09;16.58;;;6.20;;
43891;SDS011;29555;45.350;5.578;2022-10-31T11:44:35;6.05;;;3.55;;
43891;SDS011;29555;45.350;5.578;2022-10-31T11:47:01;19.13;;;5.90;;
43891;SDS011;29555;45.350;5.578;2022-10-31T11:51:58;33.53;;;5.75;;
43891;SDS011;29555;45.350;5.578;2022-10-31T11:54:29;15.00;;;5.13;;
43891;SDS011;29555;45.350;5.578;2022-10-31T11:56:57;11.70;;;2.83;;
43891;SDS011;29555;45.350;5.578;2022-10-31T11:59:24;7.57;;;3.90;;
43891;SDS011;29555;45.350;5.578;2022-10-31T12:01:52;8.32;;;4.63;;
43891;SDS011;29555;45.350;5.578;2022-10-31T12:04:19;18.63;;;4.18;;
43891;SDS011;29555;45.350;5.578;2022-10-31T12:06:51;7.40;;;4.10;;
43891;SDS011;29555;45.350;5.578;2022-10-31T12:12:03;5.72;;;3.85;;
43891;SDS011;29555;45.350;5.578;2022-10-31T12:14:46;14.00;;;3.97;;
43891;SDS011;29555;45.350;5.578;2022-10-31T12:17:14;8.45;;;3.90;;
43891;SDS011;29555;45.350;5.578;2022-10-31T12:33:25;10.68;;;3.38;;
43891;SDS011;29555;45.350;5.578;2022-10-31T12:41:44;8.13;;;3.58;;
43891;SDS011;29555;45.350;5.578;2022-10-31T12:50:02;7.20;;;3.63;;
43891;SDS011;29555;45.350;5.578;2022-10-31T12:55:46;13.25;;;3.92;;
43891;SDS011;29555;45.350;5.578;2022-10-31T12:58:38;8.93;;;4.57;;
43891;SDS011;29555;45.350;5.578;2022-10-31T13:01:26;3.90;;;3.22;;
43891;SDS011;29555;45.350;5.578;2022-10-31T13:04:12;18.02;;;4.18;;
43891;SDS011;29555;45.350;5.578;2022-10-31T13:06:49;8.38;;;3.00;;
43891;SDS011;29555;45.350;5.578;2022-10-31T13:09:32;11.20;;;4.10;;
43891;SDS011;29555;45.350;5.578;2022-10-31T13:12:10;3.97;;;2.47;;
43891;SDS011;29555;45.350;5.578;2022-10-31T13:15:21;11.10;;;4.57;;
43891;SDS011;29555;45.350;5.578;2022-10-31T13:22:40;8.00;;;4.63;;
43891;SDS011;29555;45.350;5.578;2022-10-31T13:27:57;11.60;;;3.20;;
43891;SDS011;29555;45.350;5.578;2022-10-31T13:30:36;12.38;;;3.85;;
43891;SDS011;29555;45.350;5.578;2022-10-31T13:33:14;5.47;;;3.85;;
43891;SDS011;29555;45.350;5.578;2022-10-31T13:35:52;13.60;;;4.88;;
43891;SDS011;29555;45.350;5.578;2022-10-31T13:46:38;12.48;;;4.65;;
43891;SDS011;29555;45.350;5.578;2022-10-31T13:49:21;8.30;;;4.03;;
43891;SDS011;29555;45.350;5.578;2022-10-31T13:51:50;9.95;;;3.80;;
43891;SDS011;29555;45.350;5.578;2022-10-31T13:54:21;8.20;;;3.28;;
43891;SDS011;29555;45.350;5.578;2022-10-31T13:57:00;12.18;;;4.80;;
43891;SDS011;29555;45.350;5.578;2022-10-31T13:59:26;11.10;;;4.60;;
43891;SDS011;29555;45.350;5.578;2022-10-31T14:01:57;9.68;;;4.72;;
43891;SDS011;29555;45.350;5.578;2022-10-31T14:04:48;12.77;;;4.07;;
43891;SDS011;29555;45.350;5.578;2022-10-31T14:07:18;14.18;;;2.58;;
43891;SDS011;29555;45.350;5.578;2022-10-31T14:12:24;6.57;;;3.22;;
43891;SDS011;29555;45.350;5.578;2022-10-31T14:15:18;19.05;;;5.22;;
43891;SDS011;29555;45.350;5.578;2022-10-31T14:17:49;9.27;;;3.20;;
43891;SDS011;29555;45.350;5.578;2022-10-31T14:26:05;13.55;;;4.30;;
43891;SDS011;29555;45.350;5.578;2022-10-31T14:28:32;5.70;;;3.15;;
43891;SDS011;29555;45.350;5.578;2022-10-31T14:31:00;6.80;;;2.83;;
43891;SDS011;29555;45.350;5.578;2022-10-31T14:33:26;7.88;;;3.65;;
43891;SDS011;29555;45.350;5.578;2022-10-31T14:36:00;18.27;;;3.05;;
43891;SDS011;29555;45.350;5.578;2022-10-31T14:52:23;6.70;;;2.83;;
43891;SDS011;29555;45.350;5.578;2022-10-31T14:54:53;12.00;;;3.20;;
43891;SDS011;29555;45.350;5.578;2022-10-31T14:57:30;11.38;;;3.60;;
43891;SDS011;29555;45.350;5.578;2022-10-31T14:59:59;13.48;;;3.03;;
43891;SDS011;29555;45.350;5.578;2022-10-31T15:02:35;16.27;;;3.83;;
43891;SDS011;29555;45.350;5.578;2022-10-31T15:05:09;6.03;;;2.95;;
43891;SDS011;29555;45.350;5.578;2022-10-31T15:07:36;34.08;;;4.07;;
43891;SDS011;29555;45.350;5.578;2022-10-31T15:10:06;3.15;;;2.40;;
43891;SDS011;29555;45.350;5.578;2022-10-31T15:12:44;15.90;;;4.18;;
43891;SDS011;29555;45.350;5.578;2022-10-31T15:15:11;7.97;;;3.13;;
43891;SDS011;29555;45.350;5.578;2022-10-31T15:17:41;7.55;;;3.67;;
43891;SDS011;29555;45.350;5.578;2022-10-31T15:20:17;17.30;;;3.85;;
43891;SDS011;29555;45.350;5.578;2022-10-31T15:22:45;6.13;;;3.72;;
43891;SDS011;29555;45.350;5.578;2022-10-31T15:25:16;9.32;;;3.40;;
43891;SDS011;29555;45.350;5.578;2022-10-31T15:27:50;15.32;;;5.10;;
43891;SDS011;29555;45.350;5.578;2022-10-31T15:32:47;15.65;;;4.50;;
43891;SDS011;29555;45.350;5.578;2022-10-31T15:35:28;13.10;;;3.90;;
43891;SDS011;29555;45.350;5.578;2022-10-31T15:37:55;11.02;;;3.38;;
43891;SDS011;29555;45.350;5.578;2022-10-31T15:40:22;6.10;;;3.10;;
43891;SDS011;29555;45.350;5.578;2022-10-31T15:42:59;12.60;;;3.33;;
43891;SDS011;29555;45.350;5.578;2022-10-31T15:45:27;8.52;;;3.47;;
43891;SDS011;29555;45.350;5.578;2022-10-31T15:51:08;5.43;;;3.10;;
43891;SDS011;29555;45.350;5.578;2022-10-31T15:53:20;9.02;;;5.40;;
43891;SDS011;29555;45.350;5.578;2022-10-31T15:55:53;13.70;;;3.85;;
43891;SDS011;29555;45.350;5.578;2022-10-31T15:58:20;10.80;;;4.20;;
43891;SDS011;29555;45.350;5.578;2022-10-31T16:01:03;14.27;;;3.83;;
43891;SDS011;29555;45.350;5.578;2022-10-31T16:03:31;4.80;;;2.75;;
43891;SDS011;29555;45.350;5.578;2022-10-31T16:06:01;7.93;;;3.25;;
43891;SDS011;29555;45.350;5.578;2022-10-31T16:10:54;15.73;;;7.10;;
43891;SDS011;29555;45.350;5.578;2022-10-31T16:16:22;7.68;;;3.72;;
43891;SDS011;29555;45.350;5.578;2022-10-31T16:18:49;10.02;;;4.30;;
43891;SDS011;29555;45.350;5.578;2022-10-31T16:21:22;13.30;;;3.70;;
43891;SDS011;29555;45.350;5.578;2022-10-31T16:23:51;12.95;;;3.80;;
43891;SDS011;29555;45.350;5.578;2022-10-31T16:26:20;20.58;;;3.97;;
43891;SDS011;29555;45.350;5.578;2022-10-31T16:28:52;5.95;;;2.35;;
43891;SDS011;29555;45.350;5.578;2022-10-31T16:31:25;5.72;;;3.20;;
43891;SDS011;29555;45.350;5.578;2022-10-31T16:34:13;10.80;;;2.38;;
43891;SDS011;29555;45.350;5.578;2022-10-31T16:36:45;22.80;;;3.17;;
43891;SDS011;29555;45.350;5.578;2022-10-31T16:39:11;7.55;;;3.55;;
43891;SDS011;29555;45.350;5.578;2022-10-31T16:41:39;6.43;;;2.08;;
43891;SDS011;29555;45.350;5.578;2022-10-31T16:44:11;13.27;;;3.75;;
43891;SDS011;29555;45.350;5.578;2022-10-31T16:46:41;8.05;;;3.42;;
43891;SDS011;29555;45.350;5.578;2022-10-31T16:49:10;10.73;;;3.50;;
43891;SDS011;29555;45.350;5.578;2022-10-31T16:51:36;9.05;;;3.72;;
43891;SDS011;29555;45.350;5.578;2022-10-31T16:54:01;4.65;;;3.72;;
43891;SDS011;29555;45.350;5.578;2022-10-31T16:56:31;5.07;;;2.83;;
43891;SDS011;29555;45.350;5.578;2022-10-31T16:59:01;5.25;;;3.17;;
43891;SDS011;29555;45.350;5.578;2022-10-31T17:01:29;8.70;;;2.88;;
43891;SDS011;29555;45.350;5.578;2022-10-31T17:03:55;5.80;;;2.95;;
43891;SDS011;29555;45.350;5.578;2022-10-31T17:06:21;11.82;;;2.42;;
43891;SDS011;29555;45.350;5.578;2022-10-31T17:08:46;7.03;;;2.75;;
43891;SDS011;29555;45.350;5.578;2022-10-31T17:11:14;7.55;;;2.28;;
43891;SDS011;29555;45.350;5.578;2022-10-31T17:13:41;7.15;;;4.00;;
43891;SDS011;29555;45.350;5.578;2022-10-31T17:16:06;2.90;;;2.42;;
43891;SDS011;29555;45.350;5.578;2022-10-31T17:18:32;9.27;;;3.63;;
43891;SDS011;29555;45.350;5.578;2022-10-31T17:20:58;8.52;;;2.92;;
43891;SDS011;29555;45.350;5.578;2022-10-31T17:23:24;6.47;;;2.80;;